sensor_id;sensor_type;location;lat;lon;timestamp;temperature;humidity
8928;DHT22;4499;48.304;11.902;2022-07-10T00:01:10;16.30;99.90
8928;DHT22;4499;48.304;11.902;2022-07-10T00:03:38;16.20;99.90
8928;DHT22;4499;48.304;11.902;2022-07-10T00:06:06;16.30;99.90
8928;DHT22;4499;48.304;11.902;2022-07-10T00:08:34;16.20;99.90
8928;DHT22;4499;48.304;11.902;2022-07-10T00:11:04;16.20;99.90
8928;DHT22;4499;48.304;11.902;2022-07-10T00:13:33;16.20;99.90
8928;DHT22;4499;48.304;11.902;2022-07-10T00:16:01;16.20;99.90
8928;DHT22;4499;48.304;11.902;2022-07-10T00:18:30;16.10;99.90
8928;DHT22;4499;48.304;11.902;2022-07-10T00:20:58;16.10;99.90
8928;DHT22;4499;48.304;11.902;2022-07-10T00:23:26;16.10;99.90
8928;DHT22;4499;48.304;11.902;2022-07-10T00:25:54;16.00;99.90
8928;DHT22;4499;48.304;11.902;2022-07-10T00:28:24;16.00;99.90
8928;DHT22;4499;48.304;11.902;2022-07-10T00:30:52;16.00;99.90
8928;DHT22;4499;48.304;11.902;2022-07-10T00:33:21;15.90;99.90
8928;DHT22;4499;48.304;11.902;2022-07-10T00:35:49;15.80;99.90
8928;DHT22;4499;48.304;11.902;2022-07-10T00:38:17;15.80;99.90
8928;DHT22;4499;48.304;11.902;2022-07-10T00:40:45;15.80;99.90
8928;DHT22;4499;48.304;11.902;2022-07-10T00:43:13;15.70;99.90
8928;DHT22;4499;48.304;11.902;2022-07-10T00:45:44;15.70;99.90
8928;DHT22;4499;48.304;11.902;2022-07-10T00:48:12;15.70;99.90
8928;DHT22;4499;48.304;11.902;2022-07-10T00:50:40;15.60;99.90
8928;DHT22;4499;48.304;11.902;2022-07-10T00:53:09;15.50;99.90
8928;DHT22;4499;48.304;11.902;2022-07-10T00:55:38;15.40;99.90
8928;DHT22;4499;48.304;11.902;2022-07-10T00:58:08;15.50;99.90
8928;DHT22;4499;48.304;11.902;2022-07-10T01:00:37;15.40;99.90
8928;DHT22;4499;48.304;11.902;2022-07-10T01:03:07;15.30;99.90
8928;DHT22;4499;48.304;11.902;2022-07-10T01:05:37;15.30;99.90
8928;DHT22;4499;48.304;11.902;2022-07-10T01:08:05;15.30;99.90
8928;DHT22;4499;48.304;11.902;2022-07-10T01:10:34;15.20;99.90
8928;DHT22;4499;48.304;11.902;2022-07-10T01:13:02;15.10;99.90
8928;DHT22;4499;48.304;11.902;2022-07-10T01:15:31;15.10;99.90
8928;DHT22;4499;48.304;11.902;2022-07-10T01:18:02;15.10;99.90
8928;DHT22;4499;48.304;11.902;2022-07-10T01:20:33;15.00;99.90
8928;DHT22;4499;48.304;11.902;2022-07-10T01:23:03;15.00;99.90
8928;DHT22;4499;48.304;11.902;2022-07-10T01:25:31;15.00;99.90
8928;DHT22;4499;48.304;11.902;2022-07-10T01:27:59;14.90;99.90
8928;DHT22;4499;48.304;11.902;2022-07-10T01:30:27;14.90;99.90
8928;DHT22;4499;48.304;11.902;2022-07-10T01:32:56;14.80;99.90
8928;DHT22;4499;48.304;11.902;2022-07-10T01:35:24;14.80;99.90
8928;DHT22;4499;48.304;11.902;2022-07-10T01:37:52;14.80;99.90
8928;DHT22;4499;48.304;11.902;2022-07-10T01:40:22;14.70;99.90
8928;DHT22;4499;48.304;11.902;2022-07-10T01:42:50;14.70;99.90
8928;DHT22;4499;48.304;11.902;2022-07-10T01:45:18;14.70;99.90
8928;DHT22;4499;48.304;11.902;2022-07-10T01:47:47;14.70;99.90
8928;DHT22;4499;48.304;11.902;2022-07-10T01:50:15;14.60;99.90
8928;DHT22;4499;48.304;11.902;2022-07-10T01:52:43;14.60;99.90
8928;DHT22;4499;48.304;11.902;2022-07-10T01:55:11;14.60;99.90
8928;DHT22;4499;48.304;11.902;2022-07-10T01:57:41;14.60;99.90
8928;DHT22;4499;48.304;11.902;2022-07-10T02:00:10;14.60;99.90
8928;DHT22;4499;48.304;11.902;2022-07-10T02:02:39;14.60;99.90
8928;DHT22;4499;48.304;11.902;2022-07-10T02:05:08;14.60;99.90
8928;DHT22;4499;48.304;11.902;2022-07-10T02:07:35;14.50;99.90
8928;DHT22;4499;48.304;11.902;2022-07-10T02:10:04;14.50;99.90
8928;DHT22;4499;48.304;11.902;2022-07-10T02:12:32;14.50;99.90
8928;DHT22;4499;48.304;11.902;2022-07-10T02:15:02;14.50;99.90
8928;DHT22;4499;48.304;11.902;2022-07-10T02:17:30;14.50;99.90
8928;DHT22;4499;48.304;11.902;2022-07-10T02:19:59;14.40;99.90
8928;DHT22;4499;48.304;11.902;2022-07-10T02:22:28;14.40;99.90
8928;DHT22;4499;48.304;11.902;2022-07-10T02:24:57;14.30;99.90
8928;DHT22;4499;48.304;11.902;2022-07-10T02:27:25;14.30;99.90
8928;DHT22;4499;48.304;11.902;2022-07-10T02:29:53;14.30;99.90
8928;DHT22;4499;48.304;11.902;2022-07-10T02:32:22;14.20;99.90
8928;DHT22;4499;48.304;11.902;2022-07-10T02:34:51;14.30;99.90
8928;DHT22;4499;48.304;11.902;2022-07-10T02:37:19;14.20;99.90
8928;DHT22;4499;48.304;11.902;2022-07-10T02:39:47;14.20;99.90
8928;DHT22;4499;48.304;11.902;2022-07-10T02:42:15;14.20;99.90
8928;DHT22;4499;48.304;11.902;2022-07-10T02:44:44;14.20;99.90
8928;DHT22;4499;48.304;11.902;2022-07-10T02:47:12;14.20;99.90
8928;DHT22;4499;48.304;11.902;2022-07-10T02:49:42;14.20;99.90
8928;DHT22;4499;48.304;11.902;2022-07-10T02:52:11;14.20;99.90
8928;DHT22;4499;48.304;11.902;2022-07-10T02:54:39;14.20;99.90
8928;DHT22;4499;48.304;11.902;2022-07-10T02:57:07;14.20;99.90
8928;DHT22;4499;48.304;11.902;2022-07-10T02:59:35;14.20;99.90
8928;DHT22;4499;48.304;11.902;2022-07-10T03:02:04;14.20;99.90
8928;DHT22;4499;48.304;11.902;2022-07-10T03:04:33;14.20;99.90
8928;DHT22;4499;48.304;11.902;2022-07-10T03:07:03;14.20;99.90
8928;DHT22;4499;48.304;11.902;2022-07-10T03:09:31;14.20;99.90
8928;DHT22;4499;48.304;11.902;2022-07-10T03:11:59;14.20;99.90
8928;DHT22;4499;48.304;11.902;2022-07-10T03:14:28;14.20;99.90
8928;DHT22;4499;48.304;11.902;2022-07-10T03:16:56;14.10;99.90
8928;DHT22;4499;48.304;11.902;2022-07-10T03:19:24;14.10;99.90
8928;DHT22;4499;48.304;11.902;2022-07-10T03:21:52;14.00;99.90
8928;DHT22;4499;48.304;11.902;2022-07-10T03:24:22;14.00;99.90
8928;DHT22;4499;48.304;11.902;2022-07-10T03:26:50;14.00;99.90
8928;DHT22;4499;48.304;11.902;2022-07-10T03:29:18;14.00;99.90
8928;DHT22;4499;48.304;11.902;2022-07-10T03:31:48;13.90;99.90
8928;DHT22;4499;48.304;11.902;2022-07-10T03:34:17;13.90;99.90
8928;DHT22;4499;48.304;11.902;2022-07-10T03:36:45;13.90;99.90
8928;DHT22;4499;48.304;11.902;2022-07-10T03:39:13;13.80;99.90
8928;DHT22;4499;48.304;11.902;2022-07-10T03:41:42;13.80;99.90
8928;DHT22;4499;48.304;11.902;2022-07-10T03:44:11;13.70;99.90
8928;DHT22;4499;48.304;11.902;2022-07-10T03:46:39;13.70;99.90
8928;DHT22;4499;48.304;11.902;2022-07-10T03:49:07;13.70;99.90
8928;DHT22;4499;48.304;11.902;2022-07-10T03:51:36;13.60;99.90
8928;DHT22;4499;48.304;11.902;2022-07-10T03:54:04;13.60;99.90
8928;DHT22;4499;48.304;11.902;2022-07-10T03:56:32;13.60;99.90
8928;DHT22;4499;48.304;11.902;2022-07-10T03:59:19;13.60;99.90
8928;DHT22;4499;48.304;11.902;2022-07-10T04:01:47;13.60;99.90
8928;DHT22;4499;48.304;11.902;2022-07-10T04:04:15;13.70;99.90
8928;DHT22;4499;48.304;11.902;2022-07-10T04:06:44;13.70;99.90
8928;DHT22;4499;48.304;11.902;2022-07-10T04:09:12;13.70;99.90
8928;DHT22;4499;48.304;11.902;2022-07-10T04:11:40;13.80;99.90
8928;DHT22;4499;48.304;11.902;2022-07-10T04:14:08;13.80;99.90
8928;DHT22;4499;48.304;11.902;2022-07-10T04:16:38;13.90;99.90
8928;DHT22;4499;48.304;11.902;2022-07-10T04:19:06;13.90;99.90
8928;DHT22;4499;48.304;11.902;2022-07-10T04:21:34;13.90;99.90
8928;DHT22;4499;48.304;11.902;2022-07-10T04:24:04;14.00;99.90
8928;DHT22;4499;48.304;11.902;2022-07-10T04:26:33;14.10;99.90
8928;DHT22;4499;48.304;11.902;2022-07-10T04:29:01;14.10;99.90
8928;DHT22;4499;48.304;11.902;2022-07-10T04:31:29;14.10;99.90
8928;DHT22;4499;48.304;11.902;2022-07-10T04:33:59;14.20;99.90
8928;DHT22;4499;48.304;11.902;2022-07-10T04:36:27;14.20;99.90
8928;DHT22;4499;48.304;11.902;2022-07-10T04:38:57;14.20;99.90
8928;DHT22;4499;48.304;11.902;2022-07-10T04:41:25;14.20;99.90
8928;DHT22;4499;48.304;11.902;2022-07-10T04:43:53;14.20;99.90
8928;DHT22;4499;48.304;11.902;2022-07-10T04:46:21;14.30;99.90
8928;DHT22;4499;48.304;11.902;2022-07-10T04:48:50;14.30;99.90
8928;DHT22;4499;48.304;11.902;2022-07-10T04:51:20;14.30;99.90
8928;DHT22;4499;48.304;11.902;2022-07-10T04:53:50;14.30;99.90
8928;DHT22;4499;48.304;11.902;2022-07-10T04:56:18;14.30;99.90
8928;DHT22;4499;48.304;11.902;2022-07-10T04:58:46;14.40;99.90
8928;DHT22;4499;48.304;11.902;2022-07-10T05:01:18;14.30;99.90
8928;DHT22;4499;48.304;11.902;2022-07-10T05:03:47;14.30;99.90
8928;DHT22;4499;48.304;11.902;2022-07-10T05:06:16;14.40;99.90
8928;DHT22;4499;48.304;11.902;2022-07-10T05:08:45;14.40;99.90
8928;DHT22;4499;48.304;11.902;2022-07-10T05:11:13;14.40;99.90
8928;DHT22;4499;48.304;11.902;2022-07-10T05:13:42;14.50;99.90
8928;DHT22;4499;48.304;11.902;2022-07-10T05:16:13;14.50;99.90
8928;DHT22;4499;48.304;11.902;2022-07-10T05:18:46;14.60;99.90
8928;DHT22;4499;48.304;11.902;2022-07-10T05:21:14;14.70;99.90
8928;DHT22;4499;48.304;11.902;2022-07-10T05:23:42;14.80;99.90
8928;DHT22;4499;48.304;11.902;2022-07-10T05:26:12;14.90;99.90
8928;DHT22;4499;48.304;11.902;2022-07-10T05:28:41;14.90;99.90
8928;DHT22;4499;48.304;11.902;2022-07-10T05:31:09;14.90;99.90
8928;DHT22;4499;48.304;11.902;2022-07-10T05:33:37;14.90;99.90
8928;DHT22;4499;48.304;11.902;2022-07-10T05:36:07;14.90;99.90
8928;DHT22;4499;48.304;11.902;2022-07-10T05:38:36;14.90;99.90
8928;DHT22;4499;48.304;11.902;2022-07-10T05:41:04;14.90;99.90
8928;DHT22;4499;48.304;11.902;2022-07-10T05:43:34;15.00;99.90
8928;DHT22;4499;48.304;11.902;2022-07-10T05:46:03;15.00;99.90
8928;DHT22;4499;48.304;11.902;2022-07-10T05:48:33;15.00;99.90
8928;DHT22;4499;48.304;11.902;2022-07-10T05:51:01;15.00;99.90
8928;DHT22;4499;48.304;11.902;2022-07-10T05:53:49;15.20;99.90
8928;DHT22;4499;48.304;11.902;2022-07-10T05:56:18;15.40;99.90
8928;DHT22;4499;48.304;11.902;2022-07-10T05:58:47;15.50;99.90
8928;DHT22;4499;48.304;11.902;2022-07-10T06:01:16;15.70;99.90
8928;DHT22;4499;48.304;11.902;2022-07-10T06:03:46;16.20;99.90
8928;DHT22;4499;48.304;11.902;2022-07-10T06:06:14;16.40;99.90
8928;DHT22;4499;48.304;11.902;2022-07-10T06:08:43;16.80;99.90
8928;DHT22;4499;48.304;11.902;2022-07-10T06:11:12;16.90;99.90
8928;DHT22;4499;48.304;11.902;2022-07-10T06:13:40;16.70;99.90
8928;DHT22;4499;48.304;11.902;2022-07-10T06:16:10;16.70;99.90
8928;DHT22;4499;48.304;11.902;2022-07-10T06:18:38;16.70;99.90
8928;DHT22;4499;48.304;11.902;2022-07-10T06:21:07;16.70;99.90
8928;DHT22;4499;48.304;11.902;2022-07-10T06:23:35;16.50;99.90
8928;DHT22;4499;48.304;11.902;2022-07-10T06:26:04;16.50;99.90
8928;DHT22;4499;48.304;11.902;2022-07-10T06:28:34;16.30;99.90
8928;DHT22;4499;48.304;11.902;2022-07-10T06:31:03;16.10;99.90
8928;DHT22;4499;48.304;11.902;2022-07-10T06:33:33;15.90;99.90
8928;DHT22;4499;48.304;11.902;2022-07-10T06:36:02;15.80;99.90
8928;DHT22;4499;48.304;11.902;2022-07-10T06:38:30;15.90;99.90
8928;DHT22;4499;48.304;11.902;2022-07-10T06:40:59;15.70;99.90
8928;DHT22;4499;48.304;11.902;2022-07-10T06:43:27;15.70;99.90
8928;DHT22;4499;48.304;11.902;2022-07-10T06:45:56;15.80;99.90
8928;DHT22;4499;48.304;11.902;2022-07-10T06:48:24;15.80;99.90
8928;DHT22;4499;48.304;11.902;2022-07-10T06:50:56;15.80;99.90
8928;DHT22;4499;48.304;11.902;2022-07-10T06:53:24;16.30;99.90
8928;DHT22;4499;48.304;11.902;2022-07-10T06:55:54;17.40;99.90
8928;DHT22;4499;48.304;11.902;2022-07-10T06:58:22;17.90;99.90
8928;DHT22;4499;48.304;11.902;2022-07-10T07:00:50;17.80;99.90
8928;DHT22;4499;48.304;11.902;2022-07-10T07:03:18;17.60;99.90
8928;DHT22;4499;48.304;11.902;2022-07-10T07:05:47;17.40;99.90
8928;DHT22;4499;48.304;11.902;2022-07-10T07:08:16;17.50;99.90
8928;DHT22;4499;48.304;11.902;2022-07-10T07:10:45;17.40;99.90
8928;DHT22;4499;48.304;11.902;2022-07-10T07:13:13;17.70;99.90
8928;DHT22;4499;48.304;11.902;2022-07-10T07:15:41;17.90;99.90
8928;DHT22;4499;48.304;11.902;2022-07-10T07:18:17;18.00;99.90
8928;DHT22;4499;48.304;11.902;2022-07-10T07:20:48;18.50;99.90
8928;DHT22;4499;48.304;11.902;2022-07-10T07:23:35;18.10;99.90
8928;DHT22;4499;48.304;11.902;2022-07-10T07:26:03;18.20;99.90
8928;DHT22;4499;48.304;11.902;2022-07-10T07:28:32;18.50;99.90
8928;DHT22;4499;48.304;11.902;2022-07-10T07:31:00;18.80;99.90
8928;DHT22;4499;48.304;11.902;2022-07-10T07:33:28;18.70;99.90
8928;DHT22;4499;48.304;11.902;2022-07-10T07:35:56;18.90;99.90
8928;DHT22;4499;48.304;11.902;2022-07-10T07:38:24;19.20;99.90
8928;DHT22;4499;48.304;11.902;2022-07-10T07:40:54;20.10;99.90
8928;DHT22;4499;48.304;11.902;2022-07-10T07:43:22;20.90;99.90
8928;DHT22;4499;48.304;11.902;2022-07-10T07:45:50;20.60;99.90
8928;DHT22;4499;48.304;11.902;2022-07-10T07:48:19;20.00;99.90
8928;DHT22;4499;48.304;11.902;2022-07-10T07:50:47;19.40;99.90
8928;DHT22;4499;48.304;11.902;2022-07-10T07:53:15;20.30;99.90
8928;DHT22;4499;48.304;11.902;2022-07-10T07:55:43;21.10;99.90
8928;DHT22;4499;48.304;11.902;2022-07-10T07:58:13;22.10;99.90
8928;DHT22;4499;48.304;11.902;2022-07-10T08:00:41;22.40;99.90
8928;DHT22;4499;48.304;11.902;2022-07-10T08:03:09;21.60;99.90
8928;DHT22;4499;48.304;11.902;2022-07-10T08:05:38;21.30;99.90
8928;DHT22;4499;48.304;11.902;2022-07-10T08:08:06;22.20;99.90
8928;DHT22;4499;48.304;11.902;2022-07-10T08:10:36;23.40;99.90
8928;DHT22;4499;48.304;11.902;2022-07-10T08:13:11;24.10;99.90
8928;DHT22;4499;48.304;11.902;2022-07-10T08:15:41;25.00;99.90
8928;DHT22;4499;48.304;11.902;2022-07-10T08:18:09;24.70;99.90
8928;DHT22;4499;48.304;11.902;2022-07-10T08:20:37;24.90;99.90
8928;DHT22;4499;48.304;11.902;2022-07-10T08:23:05;25.60;99.90
8928;DHT22;4499;48.304;11.902;2022-07-10T08:25:33;26.00;99.90
8928;DHT22;4499;48.304;11.902;2022-07-10T08:28:02;26.10;99.90
8928;DHT22;4499;48.304;11.902;2022-07-10T08:30:32;26.90;99.90
8928;DHT22;4499;48.304;11.902;2022-07-10T08:33:02;25.90;99.80
8928;DHT22;4499;48.304;11.902;2022-07-10T08:35:30;24.60;99.90
8928;DHT22;4499;48.304;11.902;2022-07-10T08:37:58;23.00;99.90
8928;DHT22;4499;48.304;11.902;2022-07-10T08:40:32;22.30;99.90
8928;DHT22;4499;48.304;11.902;2022-07-10T08:43:02;22.20;99.90
8928;DHT22;4499;48.304;11.902;2022-07-10T08:45:31;23.50;99.90
8928;DHT22;4499;48.304;11.902;2022-07-10T08:48:03;24.60;99.90
8928;DHT22;4499;48.304;11.902;2022-07-10T08:50:34;25.30;99.90
8928;DHT22;4499;48.304;11.902;2022-07-10T08:53:11;24.30;99.90
8928;DHT22;4499;48.304;11.902;2022-07-10T08:55:40;22.90;99.90
8928;DHT22;4499;48.304;11.902;2022-07-10T08:58:08;23.80;99.90
8928;DHT22;4499;48.304;11.902;2022-07-10T09:00:38;24.20;99.90
8928;DHT22;4499;48.304;11.902;2022-07-10T09:03:07;24.80;99.90
8928;DHT22;4499;48.304;11.902;2022-07-10T09:05:36;25.60;99.60
8928;DHT22;4499;48.304;11.902;2022-07-10T09:08:04;26.20;99.90
8928;DHT22;4499;48.304;11.902;2022-07-10T09:10:49;27.10;95.50
8928;DHT22;4499;48.304;11.902;2022-07-10T09:13:17;26.90;95.20
8928;DHT22;4499;48.304;11.902;2022-07-10T09:15:48;27.00;95.20
8928;DHT22;4499;48.304;11.902;2022-07-10T09:18:23;25.50;94.30
8928;DHT22;4499;48.304;11.902;2022-07-10T09:20:53;24.40;97.40
8928;DHT22;4499;48.304;11.902;2022-07-10T09:23:23;23.80;98.60
8928;DHT22;4499;48.304;11.902;2022-07-10T09:25:53;24.70;98.60
8928;DHT22;4499;48.304;11.902;2022-07-10T09:28:22;24.50;98.80
8928;DHT22;4499;48.304;11.902;2022-07-10T09:30:51;24.80;98.70
8928;DHT22;4499;48.304;11.902;2022-07-10T09:33:23;25.90;95.90
8928;DHT22;4499;48.304;11.902;2022-07-10T09:35:57;26.30;93.80
8928;DHT22;4499;48.304;11.902;2022-07-10T09:38:49;26.50;93.10
8928;DHT22;4499;48.304;11.902;2022-07-10T09:41:19;27.50;94.60
8928;DHT22;4499;48.304;11.902;2022-07-10T09:43:50;28.20;91.50
8928;DHT22;4499;48.304;11.902;2022-07-10T09:46:20;27.90;89.70
8928;DHT22;4499;48.304;11.902;2022-07-10T09:49:04;26.20;91.50
8928;DHT22;4499;48.304;11.902;2022-07-10T09:51:34;25.20;92.50
8928;DHT22;4499;48.304;11.902;2022-07-10T09:54:05;25.70;92.20
8928;DHT22;4499;48.304;11.902;2022-07-10T09:56:39;26.30;90.70
8928;DHT22;4499;48.304;11.902;2022-07-10T09:59:10;26.80;90.70
8928;DHT22;4499;48.304;11.902;2022-07-10T10:01:43;27.10;89.60
8928;DHT22;4499;48.304;11.902;2022-07-10T10:04:16;27.60;89.90
8928;DHT22;4499;48.304;11.902;2022-07-10T10:06:49;28.20;84.90
8928;DHT22;4499;48.304;11.902;2022-07-10T10:09:22;28.30;89.30
8928;DHT22;4499;48.304;11.902;2022-07-10T10:11:55;28.40;87.30
8928;DHT22;4499;48.304;11.902;2022-07-10T10:14:25;28.40;86.10
8928;DHT22;4499;48.304;11.902;2022-07-10T10:16:55;28.10;83.90
8928;DHT22;4499;48.304;11.902;2022-07-10T10:19:26;28.80;79.30
8928;DHT22;4499;48.304;11.902;2022-07-10T10:22:13;28.70;81.50
8928;DHT22;4499;48.304;11.902;2022-07-10T10:24:43;28.50;82.90
8928;DHT22;4499;48.304;11.902;2022-07-10T10:27:13;28.30;81.60
8928;DHT22;4499;48.304;11.902;2022-07-10T10:29:43;27.90;80.70
8928;DHT22;4499;48.304;11.902;2022-07-10T10:32:13;27.90;84.20
8928;DHT22;4499;48.304;11.902;2022-07-10T10:34:43;27.70;82.80
8928;DHT22;4499;48.304;11.902;2022-07-10T10:37:34;28.00;82.80
8928;DHT22;4499;48.304;11.902;2022-07-10T10:40:05;28.60;82.10
8928;DHT22;4499;48.304;11.902;2022-07-10T10:42:35;27.40;79.80
8928;DHT22;4499;48.304;11.902;2022-07-10T10:45:26;26.80;83.70
8928;DHT22;4499;48.304;11.902;2022-07-10T10:48:01;26.50;83.70
8928;DHT22;4499;48.304;11.902;2022-07-10T10:50:52;25.40;83.80
8928;DHT22;4499;48.304;11.902;2022-07-10T10:53:22;25.40;87.60
8928;DHT22;4499;48.304;11.902;2022-07-10T10:56:21;25.60;86.60
8928;DHT22;4499;48.304;11.902;2022-07-10T10:58:51;25.00;89.60
8928;DHT22;4499;48.304;11.902;2022-07-10T11:01:30;25.50;87.70
8928;DHT22;4499;48.304;11.902;2022-07-10T11:04:17;26.00;85.10
8928;DHT22;4499;48.304;11.902;2022-07-10T11:06:49;26.50;86.20
8928;DHT22;4499;48.304;11.902;2022-07-10T11:09:22;26.40;85.50
8928;DHT22;4499;48.304;11.902;2022-07-10T11:12:02;26.00;84.80
8928;DHT22;4499;48.304;11.902;2022-07-10T11:14:32;25.30;83.20
8928;DHT22;4499;48.304;11.902;2022-07-10T11:17:00;24.70;85.10
8928;DHT22;4499;48.304;11.902;2022-07-10T11:19:31;24.00;86.10
8928;DHT22;4499;48.304;11.902;2022-07-10T11:22:30;24.30;86.80
8928;DHT22;4499;48.304;11.902;2022-07-10T11:25:11;24.30;84.60
8928;DHT22;4499;48.304;11.902;2022-07-10T11:28:03;24.90;82.50
8928;DHT22;4499;48.304;11.902;2022-07-10T11:30:50;25.10;81.60
8928;DHT22;4499;48.304;11.902;2022-07-10T11:33:19;25.40;79.90
8928;DHT22;4499;48.304;11.902;2022-07-10T11:35:50;25.60;79.00
8928;DHT22;4499;48.304;11.902;2022-07-10T11:38:21;25.60;81.30
8928;DHT22;4499;48.304;11.902;2022-07-10T11:40:50;25.10;81.60
8928;DHT22;4499;48.304;11.902;2022-07-10T11:43:20;25.30;81.20
8928;DHT22;4499;48.304;11.902;2022-07-10T11:45:51;25.10;81.90
8928;DHT22;4499;48.304;11.902;2022-07-10T11:48:22;24.80;82.80
8928;DHT22;4499;48.304;11.902;2022-07-10T11:50:51;24.40;84.40
8928;DHT22;4499;48.304;11.902;2022-07-10T11:53:25;24.80;82.10
8928;DHT22;4499;48.304;11.902;2022-07-10T11:55:56;24.90;82.40
8928;DHT22;4499;48.304;11.902;2022-07-10T11:58:24;24.80;82.70
8928;DHT22;4499;48.304;11.902;2022-07-10T12:01:00;24.60;84.00
8928;DHT22;4499;48.304;11.902;2022-07-10T12:03:29;24.00;84.90
8928;DHT22;4499;48.304;11.902;2022-07-10T12:06:02;23.40;83.70
8928;DHT22;4499;48.304;11.902;2022-07-10T12:08:42;23.20;85.50
8928;DHT22;4499;48.304;11.902;2022-07-10T12:11:13;23.10;82.80
8928;DHT22;4499;48.304;11.902;2022-07-10T12:13:42;23.10;86.10
8928;DHT22;4499;48.304;11.902;2022-07-10T12:16:11;23.40;85.80
8928;DHT22;4499;48.304;11.902;2022-07-10T12:18:40;23.40;84.20
8928;DHT22;4499;48.304;11.902;2022-07-10T12:21:11;23.10;84.20
8928;DHT22;4499;48.304;11.902;2022-07-10T12:23:43;23.20;85.30
8928;DHT22;4499;48.304;11.902;2022-07-10T12:26:13;23.10;88.60
8928;DHT22;4499;48.304;11.902;2022-07-10T12:28:52;23.40;88.20
8928;DHT22;4499;48.304;11.902;2022-07-10T12:31:22;23.70;87.00
8928;DHT22;4499;48.304;11.902;2022-07-10T12:33:52;23.50;84.90
8928;DHT22;4499;48.304;11.902;2022-07-10T12:36:21;23.50;85.70
8928;DHT22;4499;48.304;11.902;2022-07-10T12:38:55;22.80;85.40
8928;DHT22;4499;48.304;11.902;2022-07-10T12:41:25;23.10;86.40
8928;DHT22;4499;48.304;11.902;2022-07-10T12:43:53;22.90;86.20
8928;DHT22;4499;48.304;11.902;2022-07-10T12:46:22;22.40;84.90
8928;DHT22;4499;48.304;11.902;2022-07-10T12:49:05;22.20;86.60
8928;DHT22;4499;48.304;11.902;2022-07-10T12:51:41;22.00;85.90
8928;DHT22;4499;48.304;11.902;2022-07-10T12:54:35;21.80;85.40
8928;DHT22;4499;48.304;11.902;2022-07-10T12:57:04;21.70;87.50
8928;DHT22;4499;48.304;11.902;2022-07-10T12:59:33;22.00;89.40
8928;DHT22;4499;48.304;11.902;2022-07-10T13:02:15;22.10;90.00
8928;DHT22;4499;48.304;11.902;2022-07-10T13:04:54;22.20;87.60
8928;DHT22;4499;48.304;11.902;2022-07-10T13:07:32;22.40;87.80
8928;DHT22;4499;48.304;11.902;2022-07-10T13:10:03;22.10;85.10
8928;DHT22;4499;48.304;11.902;2022-07-10T13:12:32;21.60;90.40
8928;DHT22;4499;48.304;11.902;2022-07-10T13:15:01;22.00;89.10
8928;DHT22;4499;48.304;11.902;2022-07-10T13:17:29;22.10;88.30
8928;DHT22;4499;48.304;11.902;2022-07-10T13:19:57;22.30;86.00
8928;DHT22;4499;48.304;11.902;2022-07-10T13:22:26;22.30;84.80
8928;DHT22;4499;48.304;11.902;2022-07-10T13:24:54;22.20;85.80
8928;DHT22;4499;48.304;11.902;2022-07-10T13:27:24;22.20;88.50
8928;DHT22;4499;48.304;11.902;2022-07-10T13:29:52;22.40;87.90
8928;DHT22;4499;48.304;11.902;2022-07-10T13:32:20;22.50;85.70
8928;DHT22;4499;48.304;11.902;2022-07-10T13:34:55;22.00;86.60
8928;DHT22;4499;48.304;11.902;2022-07-10T13:37:23;22.10;84.50
8928;DHT22;4499;48.304;11.902;2022-07-10T13:39:52;22.30;86.80
8928;DHT22;4499;48.304;11.902;2022-07-10T13:42:20;22.30;90.20
8928;DHT22;4499;48.304;11.902;2022-07-10T13:44:50;22.50;85.80
8928;DHT22;4499;48.304;11.902;2022-07-10T13:47:18;22.50;86.60
8928;DHT22;4499;48.304;11.902;2022-07-10T13:49:46;22.40;85.80
8928;DHT22;4499;48.304;11.902;2022-07-10T13:52:15;22.30;87.60
8928;DHT22;4499;48.304;11.902;2022-07-10T13:54:43;22.10;87.90
8928;DHT22;4499;48.304;11.902;2022-07-10T13:57:11;22.20;86.80
8928;DHT22;4499;48.304;11.902;2022-07-10T13:59:39;22.60;90.20
8928;DHT22;4499;48.304;11.902;2022-07-10T14:02:09;22.30;86.50
8928;DHT22;4499;48.304;11.902;2022-07-10T14:04:42;22.20;88.80
8928;DHT22;4499;48.304;11.902;2022-07-10T14:07:11;22.10;86.70
8928;DHT22;4499;48.304;11.902;2022-07-10T14:09:39;21.90;85.10
8928;DHT22;4499;48.304;11.902;2022-07-10T14:12:07;22.30;88.10
8928;DHT22;4499;48.304;11.902;2022-07-10T14:14:36;22.30;85.70
8928;DHT22;4499;48.304;11.902;2022-07-10T14:17:05;22.40;85.70
8928;DHT22;4499;48.304;11.902;2022-07-10T14:19:34;22.30;85.20
8928;DHT22;4499;48.304;11.902;2022-07-10T14:22:03;22.40;83.80
8928;DHT22;4499;48.304;11.902;2022-07-10T14:24:31;22.10;81.80
8928;DHT22;4499;48.304;11.902;2022-07-10T14:27:06;22.20;84.20
8928;DHT22;4499;48.304;11.902;2022-07-10T14:29:34;22.20;85.80
8928;DHT22;4499;48.304;11.902;2022-07-10T14:32:02;22.20;84.40
8928;DHT22;4499;48.304;11.902;2022-07-10T14:34:31;22.20;81.50
8928;DHT22;4499;48.304;11.902;2022-07-10T14:37:00;22.10;85.00
8928;DHT22;4499;48.304;11.902;2022-07-10T14:39:29;21.80;83.00
8928;DHT22;4499;48.304;11.902;2022-07-10T14:41:57;21.80;85.00
8928;DHT22;4499;48.304;11.902;2022-07-10T14:44:25;21.60;83.10
8928;DHT22;4499;48.304;11.902;2022-07-10T14:46:53;21.70;87.50
8928;DHT22;4499;48.304;11.902;2022-07-10T14:49:21;21.90;89.50
8928;DHT22;4499;48.304;11.902;2022-07-10T14:51:50;21.50;85.20
8928;DHT22;4499;48.304;11.902;2022-07-10T14:54:19;21.50;86.50
8928;DHT22;4499;48.304;11.902;2022-07-10T14:56:48;21.40;88.20
8928;DHT22;4499;48.304;11.902;2022-07-10T14:59:16;21.50;87.20
8928;DHT22;4499;48.304;11.902;2022-07-10T15:01:44;21.50;87.20
8928;DHT22;4499;48.304;11.902;2022-07-10T15:04:13;21.50;87.20
8928;DHT22;4499;48.304;11.902;2022-07-10T15:06:42;21.50;87.90
8928;DHT22;4499;48.304;11.902;2022-07-10T15:09:10;21.70;87.30
8928;DHT22;4499;48.304;11.902;2022-07-10T15:11:39;21.70;87.70
8928;DHT22;4499;48.304;11.902;2022-07-10T15:14:07;21.70;86.00
8928;DHT22;4499;48.304;11.902;2022-07-10T15:16:36;21.30;86.50
8928;DHT22;4499;48.304;11.902;2022-07-10T15:19:04;20.90;87.60
8928;DHT22;4499;48.304;11.902;2022-07-10T15:21:34;20.90;88.60
8928;DHT22;4499;48.304;11.902;2022-07-10T15:24:02;20.60;86.10
8928;DHT22;4499;48.304;11.902;2022-07-10T15:26:30;20.40;87.50
8928;DHT22;4499;48.304;11.902;2022-07-10T15:29:01;20.10;89.30
8928;DHT22;4499;48.304;11.902;2022-07-10T15:31:29;19.80;88.20
8928;DHT22;4499;48.304;11.902;2022-07-10T15:33:57;19.80;88.10
8928;DHT22;4499;48.304;11.902;2022-07-10T15:36:25;20.00;89.30
8928;DHT22;4499;48.304;11.902;2022-07-10T15:38:53;20.20;87.00
8928;DHT22;4499;48.304;11.902;2022-07-10T15:41:22;20.50;87.40
8928;DHT22;4499;48.304;11.902;2022-07-10T15:43:50;20.80;87.60
8928;DHT22;4499;48.304;11.902;2022-07-10T15:46:19;21.00;87.10
8928;DHT22;4499;48.304;11.902;2022-07-10T15:48:47;21.00;87.70
8928;DHT22;4499;48.304;11.902;2022-07-10T15:51:15;21.10;86.80
8928;DHT22;4499;48.304;11.902;2022-07-10T15:53:44;20.80;87.10
8928;DHT22;4499;48.304;11.902;2022-07-10T15:56:12;20.80;88.50
8928;DHT22;4499;48.304;11.902;2022-07-10T15:58:40;21.00;88.00
8928;DHT22;4499;48.304;11.902;2022-07-10T16:01:11;20.90;87.80
8928;DHT22;4499;48.304;11.902;2022-07-10T16:03:41;20.90;87.50